sensor_id;sensor_type;location;lat;lon;timestamp;temperature;humidity
23719;DHT22;43322;52.230;5.702;2024-02-15T00:00:02;12.10;99.90
23719;DHT22;43322;52.230;5.702;2024-02-15T00:02:29;12.10;99.90
23719;DHT22;43322;52.230;5.702;2024-02-15T00:04:56;12.20;99.90
23719;DHT22;43322;52.230;5.702;2024-02-15T00:07:23;12.20;99.90
23719;DHT22;43322;52.230;5.702;2024-02-15T00:09:51;12.20;99.90
23719;DHT22;43322;52.230;5.702;2024-02-15T00:12:19;12.30;99.90
23719;DHT22;43322;52.230;5.702;2024-02-15T00:14:46;12.40;99.90
23719;DHT22;43322;52.230;5.702;2024-02-15T00:17:13;12.50;99.90
23719;DHT22;43322;52.230;5.702;2024-02-15T00:19:39;12.50;99.90
23719;DHT22;43322;52.230;5.702;2024-02-15T00:22:07;12.50;99.90
23719;DHT22;43322;52.230;5.702;2024-02-15T00:24:36;12.20;99.90
23719;DHT22;43322;52.230;5.702;2024-02-15T00:27:04;12.30;99.90
23719;DHT22;43322;52.230;5.702;2024-02-15T00:29:31;12.30;99.90
23719;DHT22;43322;52.230;5.702;2024-02-15T00:31:59;12.20;99.90
23719;DHT22;43322;52.230;5.702;2024-02-15T00:34:26;12.20;99.90
23719;DHT22;43322;52.230;5.702;2024-02-15T00:36:53;12.20;99.90
23719;DHT22;43322;52.230;5.702;2024-02-15T00:39:20;12.20;99.90
23719;DHT22;43322;52.230;5.702;2024-02-15T00:41:47;12.00;99.90
23719;DHT22;43322;52.230;5.702;2024-02-15T00:44:15;12.30;99.90
23719;DHT22;43322;52.230;5.702;2024-02-15T00:46:43;12.30;99.90
23719;DHT22;43322;52.230;5.702;2024-02-15T00:49:10;12.30;99.90
23719;DHT22;43322;52.230;5.702;2024-02-15T00:51:37;12.30;99.90
23719;DHT22;43322;52.230;5.702;2024-02-15T00:54:04;12.30;99.90
23719;DHT22;43322;52.230;5.702;2024-02-15T00:56:31;12.20;99.90
23719;DHT22;43322;52.230;5.702;2024-02-15T00:58:59;12.30;99.90
23719;DHT22;43322;52.230;5.702;2024-02-15T01:01:28;12.50;99.90
23719;DHT22;43322;52.230;5.702;2024-02-15T01:03:56;12.40;99.90
23719;DHT22;43322;52.230;5.702;2024-02-15T01:06:22;12.40;99.90
23719;DHT22;43322;52.230;5.702;2024-02-15T01:08:49;12.30;99.90
23719;DHT22;43322;52.230;5.702;2024-02-15T01:11:17;12.30;99.90
23719;DHT22;43322;52.230;5.702;2024-02-15T01:13:44;12.40;99.90
23719;DHT22;43322;52.230;5.702;2024-02-15T01:16:10;12.50;99.90
23719;DHT22;43322;52.230;5.702;2024-02-15T01:18:39;12.40;99.90
23719;DHT22;43322;52.230;5.702;2024-02-15T01:21:05;12.50;99.90
23719;DHT22;43322;52.230;5.702;2024-02-15T01:23:32;12.50;99.90
23719;DHT22;43322;52.230;5.702;2024-02-15T01:26:02;12.40;99.90
23719;DHT22;43322;52.230;5.702;2024-02-15T01:28:30;12.30;99.90
23719;DHT22;43322;52.230;5.702;2024-02-15T01:30:57;12.30;99.90
23719;DHT22;43322;52.230;5.702;2024-02-15T01:33:24;12.20;99.90
23719;DHT22;43322;52.230;5.702;2024-02-15T01:35:53;12.20;99.90
23719;DHT22;43322;52.230;5.702;2024-02-15T01:38:20;12.40;99.90
23719;DHT22;43322;52.230;5.702;2024-02-15T01:40:47;12.40;99.90
23719;DHT22;43322;52.230;5.702;2024-02-15T01:43:14;12.40;99.90
23719;DHT22;43322;52.230;5.702;2024-02-15T01:45:41;12.20;99.90
23719;DHT22;43322;52.230;5.702;2024-02-15T01:48:08;12.20;99.90
23719;DHT22;43322;52.230;5.702;2024-02-15T01:50:36;12.10;99.90
23719;DHT22;43322;52.230;5.702;2024-02-15T01:53:05;12.40;99.90
23719;DHT22;43322;52.230;5.702;2024-02-15T01:55:33;12.40;99.90
23719;DHT22;43322;52.230;5.702;2024-02-15T01:58:01;12.20;99.90
23719;DHT22;43322;52.230;5.702;2024-02-15T02:00:28;12.40;99.90
23719;DHT22;43322;52.230;5.702;2024-02-15T02:02:57;12.20;99.90
23719;DHT22;43322;52.230;5.702;2024-02-15T02:05:28;12.40;99.90
23719;DHT22;43322;52.230;5.702;2024-02-15T02:07:56;12.40;99.90
23719;DHT22;43322;52.230;5.702;2024-02-15T02:10:26;12.60;99.90
23719;DHT22;43322;52.230;5.702;2024-02-15T02:12:58;12.40;99.90
23719;DHT22;43322;52.230;5.702;2024-02-15T02:15:25;12.40;99.90
23719;DHT22;43322;52.230;5.702;2024-02-15T02:17:52;12.40;99.90
23719;DHT22;43322;52.230;5.702;2024-02-15T02:20:19;12.30;99.90
23719;DHT22;43322;52.230;5.702;2024-02-15T02:22:48;12.50;99.90
23719;DHT22;43322;52.230;5.702;2024-02-15T02:25:17;12.40;99.90
23719;DHT22;43322;52.230;5.702;2024-02-15T02:27:45;12.50;99.90
23719;DHT22;43322;52.230;5.702;2024-02-15T02:30:14;12.50;99.90
23719;DHT22;43322;52.230;5.702;2024-02-15T02:32:44;12.60;99.90
23719;DHT22;43322;52.230;5.702;2024-02-15T02:35:11;12.50;99.90
23719;DHT22;43322;52.230;5.702;2024-02-15T02:37:39;12.30;99.90
23719;DHT22;43322;52.230;5.702;2024-02-15T02:40:07;12.50;99.90
23719;DHT22;43322;52.230;5.702;2024-02-15T02:42:36;12.20;99.90
23719;DHT22;43322;52.230;5.702;2024-02-15T02:45:04;12.10;99.90
23719;DHT22;43322;52.230;5.702;2024-02-15T02:47:31;12.20;99.90
23719;DHT22;43322;52.230;5.702;2024-02-15T02:49:58;12.40;99.90
23719;DHT22;43322;52.230;5.702;2024-02-15T02:52:25;12.30;99.90
23719;DHT22;43322;52.230;5.702;2024-02-15T02:54:52;12.30;99.90
23719;DHT22;43322;52.230;5.702;2024-02-15T02:57:19;12.80;99.90
23719;DHT22;43322;52.230;5.702;2024-02-15T02:59:47;12.30;99.90
23719;DHT22;43322;52.230;5.702;2024-02-15T03:02:14;12.30;99.90
23719;DHT22;43322;52.230;5.702;2024-02-15T03:07:07;12.10;99.90
23719;DHT22;43322;52.230;5.702;2024-02-15T03:09:34;12.10;99.90
23719;DHT22;43322;52.230;5.702;2024-02-15T03:12:03;12.10;99.90
23719;DHT22;43322;52.230;5.702;2024-02-15T03:14:30;12.10;99.90
23719;DHT22;43322;52.230;5.702;2024-02-15T03:17:01;12.10;99.90
23719;DHT22;43322;52.230;5.702;2024-02-15T03:19:29;12.10;99.90
23719;DHT22;43322;52.230;5.702;2024-02-15T03:21:56;12.10;99.90
23719;DHT22;43322;52.230;5.702;2024-02-15T03:24:23;12.10;99.90
23719;DHT22;43322;52.230;5.702;2024-02-15T03:26:50;12.20;99.90
23719;DHT22;43322;52.230;5.702;2024-02-15T03:29:17;12.20;99.90
23719;DHT22;43322;52.230;5.702;2024-02-15T03:31:45;12.10;99.90
23719;DHT22;43322;52.230;5.702;2024-02-15T03:34:16;12.20;99.90
23719;DHT22;43322;52.230;5.702;2024-02-15T03:36:42;12.10;99.90
23719;DHT22;43322;52.230;5.702;2024-02-15T03:39:09;12.10;99.90
23719;DHT22;43322;52.230;5.702;2024-02-15T03:41:36;12.10;99.90
23719;DHT22;43322;52.230;5.702;2024-02-15T03:44:03;12.00;99.90
23719;DHT22;43322;52.230;5.702;2024-02-15T03:46:30;12.00;99.90
23719;DHT22;43322;52.230;5.702;2024-02-15T03:48:58;12.00;99.90
23719;DHT22;43322;52.230;5.702;2024-02-15T03:51:26;12.00;99.90
23719;DHT22;43322;52.230;5.702;2024-02-15T03:53:53;12.10;99.90
23719;DHT22;43322;52.230;5.702;2024-02-15T03:56:19;12.00;99.90
23719;DHT22;43322;52.230;5.702;2024-02-15T03:58:47;12.00;99.90
23719;DHT22;43322;52.230;5.702;2024-02-15T04:01:15;12.00;99.90
23719;DHT22;43322;52.230;5.702;2024-02-15T04:03:42;12.00;99.90
23719;DHT22;43322;52.230;5.702;2024-02-15T04:06:10;12.00;99.90
23719;DHT22;43322;52.230;5.702;2024-02-15T04:08:38;12.00;99.90
23719;DHT22;43322;52.230;5.702;2024-02-15T04:11:05;11.90;99.90
23719;DHT22;43322;52.230;5.702;2024-02-15T04:13:33;11.90;99.90
23719;DHT22;43322;52.230;5.702;2024-02-15T04:15:59;12.00;99.90
23719;DHT22;43322;52.230;5.702;2024-02-15T04:18:27;12.00;99.90
23719;DHT22;43322;52.230;5.702;2024-02-15T04:20:58;12.00;99.90
23719;DHT22;43322;52.230;5.702;2024-02-15T04:23:25;12.00;99.90
23719;DHT22;43322;52.230;5.702;2024-02-15T04:25:53;12.00;99.90
23719;DHT22;43322;52.230;5.702;2024-02-15T04:28:20;12.00;99.90
23719;DHT22;43322;52.230;5.702;2024-02-15T04:30:46;11.90;99.90
23719;DHT22;43322;52.230;5.702;2024-02-15T04:33:14;11.90;99.90
23719;DHT22;43322;52.230;5.702;2024-02-15T04:35:42;11.90;99.90
23719;DHT22;43322;52.230;5.702;2024-02-15T04:38:09;12.00;99.90
23719;DHT22;43322;52.230;5.702;2024-02-15T04:40:36;12.00;99.90
23719;DHT22;43322;52.230;5.702;2024-02-15T04:43:06;11.90;99.90
23719;DHT22;43322;52.230;5.702;2024-02-15T04:45:34;11.90;99.90
23719;DHT22;43322;52.230;5.702;2024-02-15T04:48:01;11.90;99.90
23719;DHT22;43322;52.230;5.702;2024-02-15T04:50:28;11.90;99.90
23719;DHT22;43322;52.230;5.702;2024-02-15T04:52:55;11.90;99.90
23719;DHT22;43322;52.230;5.702;2024-02-15T04:55:23;12.70;99.90
23719;DHT22;43322;52.230;5.702;2024-02-15T04:57:51;12.00;99.90
23719;DHT22;43322;52.230;5.702;2024-02-15T05:00:23;12.00;99.90
23719;DHT22;43322;52.230;5.702;2024-02-15T05:02:51;11.90;99.90
23719;DHT22;43322;52.230;5.702;2024-02-15T05:05:18;11.90;99.90
23719;DHT22;43322;52.230;5.702;2024-02-15T05:07:45;12.00;99.90
23719;DHT22;43322;52.230;5.702;2024-02-15T05:10:14;11.90;99.90
23719;DHT22;43322;52.230;5.702;2024-02-15T05:12:41;11.90;99.90
23719;DHT22;43322;52.230;5.702;2024-02-15T05:15:09;12.00;99.90
23719;DHT22;43322;52.230;5.702;2024-02-15T05:17:38;11.90;99.90
23719;DHT22;43322;52.230;5.702;2024-02-15T05:20:08;11.90;99.90
23719;DHT22;43322;52.230;5.702;2024-02-15T05:22:36;11.90;99.90
23719;DHT22;43322;52.230;5.702;2024-02-15T05:25:04;11.90;99.90
23719;DHT22;43322;52.230;5.702;2024-02-15T05:27:31;12.00;99.90
23719;DHT22;43322;52.230;5.702;2024-02-15T05:29:58;12.00;99.90
23719;DHT22;43322;52.230;5.702;2024-02-15T05:32:25;12.00;99.90
23719;DHT22;43322;52.230;5.702;2024-02-15T05:34:54;11.90;99.90
23719;DHT22;43322;52.230;5.702;2024-02-15T05:37:21;11.90;99.90
23719;DHT22;43322;52.230;5.702;2024-02-15T05:39:48;11.60;99.90
23719;DHT22;43322;52.230;5.702;2024-02-15T05:42:19;11.90;99.90
23719;DHT22;43322;52.230;5.702;2024-02-15T05:44:46;11.90;99.90
23719;DHT22;43322;52.230;5.702;2024-02-15T05:47:13;11.90;99.90
23719;DHT22;43322;52.230;5.702;2024-02-15T05:49:40;12.10;99.90
23719;DHT22;43322;52.230;5.702;2024-02-15T05:52:08;12.00;99.90
23719;DHT22;43322;52.230;5.702;2024-02-15T05:54:35;12.00;99.90
23719;DHT22;43322;52.230;5.702;2024-02-15T05:57:01;12.00;99.90
23719;DHT22;43322;52.230;5.702;2024-02-15T05:59:28;11.90;99.90
23719;DHT22;43322;52.230;5.702;2024-02-15T06:01:55;11.90;99.90
23719;DHT22;43322;52.230;5.702;2024-02-15T06:04:22;11.90;99.90
23719;DHT22;43322;52.230;5.702;2024-02-15T06:06:50;11.90;99.90
23719;DHT22;43322;52.230;5.702;2024-02-15T06:09:20;11.90;99.90
23719;DHT22;43322;52.230;5.702;2024-02-15T06:11:50;11.90;99.90
23719;DHT22;43322;52.230;5.702;2024-02-15T06:14:20;12.00;99.90
23719;DHT22;43322;52.230;5.702;2024-02-15T06:16:47;11.90;99.90
23719;DHT22;43322;52.230;5.702;2024-02-15T06:19:14;11.90;99.90
23719;DHT22;43322;52.230;5.702;2024-02-15T06:21:41;11.90;99.90
23719;DHT22;43322;52.230;5.702;2024-02-15T06:24:09;12.00;99.90
23719;DHT22;43322;52.230;5.702;2024-02-15T06:26:37;12.00;99.90
23719;DHT22;43322;52.230;5.702;2024-02-15T06:29:04;12.00;99.90
23719;DHT22;43322;52.230;5.702;2024-02-15T06:31:48;12.00;99.90
23719;DHT22;43322;52.230;5.702;2024-02-15T06:34:32;12.00;99.90
23719;DHT22;43322;52.230;5.702;2024-02-15T06:37:35;12.00;99.90
23719;DHT22;43322;52.230;5.702;2024-02-15T06:40:19;12.00;99.90
23719;DHT22;43322;52.230;5.702;2024-02-15T06:42:47;12.10;99.90
23719;DHT22;43322;52.230;5.702;2024-02-15T06:45:14;12.10;99.90
23719;DHT22;43322;52.230;5.702;2024-02-15T06:47:42;12.20;99.90
23719;DHT22;43322;52.230;5.702;2024-02-15T06:50:10;12.00;99.90
23719;DHT22;43322;52.230;5.702;2024-02-15T06:55:06;11.80;99.90
23719;DHT22;43322;52.230;5.702;2024-02-15T06:57:33;12.00;99.90
23719;DHT22;43322;52.230;5.702;2024-02-15T07:00:02;12.00;99.90
23719;DHT22;43322;52.230;5.702;2024-02-15T07:02:30;12.00;99.90
23719;DHT22;43322;52.230;5.702;2024-02-15T07:04:58;12.00;99.90
23719;DHT22;43322;52.230;5.702;2024-02-15T07:07:25;12.00;99.90
23719;DHT22;43322;52.230;5.702;2024-02-15T07:09:52;12.00;99.90
23719;DHT22;43322;52.230;5.702;2024-02-15T07:12:19;12.10;99.90
23719;DHT22;43322;52.230;5.702;2024-02-15T07:14:47;12.10;99.90
23719;DHT22;43322;52.230;5.702;2024-02-15T07:17:15;11.90;99.90
23719;DHT22;43322;52.230;5.702;2024-02-15T07:19:43;12.00;99.90
23719;DHT22;43322;52.230;5.702;2024-02-15T07:22:10;12.10;99.90
23719;DHT22;43322;52.230;5.702;2024-02-15T07:24:37;12.10;99.90
23719;DHT22;43322;52.230;5.702;2024-02-15T07:27:05;12.10;99.90
23719;DHT22;43322;52.230;5.702;2024-02-15T07:29:31;12.00;99.90
23719;DHT22;43322;52.230;5.702;2024-02-15T07:32:01;12.00;99.90
23719;DHT22;43322;52.230;5.702;2024-02-15T07:34:31;12.00;99.90
23719;DHT22;43322;52.230;5.702;2024-02-15T07:36:58;12.10;99.90
23719;DHT22;43322;52.230;5.702;2024-02-15T07:39:25;12.10;99.90
23719;DHT22;43322;52.230;5.702;2024-02-15T07:41:53;12.00;99.90
23719;DHT22;43322;52.230;5.702;2024-02-15T07:44:22;12.10;99.90
23719;DHT22;43322;52.230;5.702;2024-02-15T07:46:49;12.00;99.90
23719;DHT22;43322;52.230;5.702;2024-02-15T07:49:16;12.10;99.90
23719;DHT22;43322;52.230;5.702;2024-02-15T07:51:45;12.10;99.90
23719;DHT22;43322;52.230;5.702;2024-02-15T07:54:17;12.10;99.90
23719;DHT22;43322;52.230;5.702;2024-02-15T07:56:46;12.00;99.90
23719;DHT22;43322;52.230;5.702;2024-02-15T07:59:13;12.00;99.90
23719;DHT22;43322;52.230;5.702;2024-02-15T08:01:42;12.10;99.90
23719;DHT22;43322;52.230;5.702;2024-02-15T08:04:08;12.00;99.90
23719;DHT22;43322;52.230;5.702;2024-02-15T08:06:35;12.00;99.90
23719;DHT22;43322;52.230;5.702;2024-02-15T08:09:05;12.10;99.90
23719;DHT22;43322;52.230;5.702;2024-02-15T08:11:31;12.00;99.90
23719;DHT22;43322;52.230;5.702;2024-02-15T08:13:58;12.00;99.90
23719;DHT22;43322;52.230;5.702;2024-02-15T08:16:26;12.00;99.90
23719;DHT22;43322;52.230;5.702;2024-02-15T08:18:54;12.00;99.90
23719;DHT22;43322;52.230;5.702;2024-02-15T08:21:25;12.10;99.90
23719;DHT22;43322;52.230;5.702;2024-02-15T08:23:54;12.00;99.90
23719;DHT22;43322;52.230;5.702;2024-02-15T08:26:23;12.00;99.90
23719;DHT22;43322;52.230;5.702;2024-02-15T08:28:50;12.00;99.90
23719;DHT22;43322;52.230;5.702;2024-02-15T08:31:16;12.00;99.90
23719;DHT22;43322;52.230;5.702;2024-02-15T08:33:45;12.00;99.90
23719;DHT22;43322;52.230;5.702;2024-02-15T08:36:12;11.90;99.90
23719;DHT22;43322;52.230;5.702;2024-02-15T08:38:39;12.10;99.90
23719;DHT22;43322;52.230;5.702;2024-02-15T08:41:07;12.00;99.90
23719;DHT22;43322;52.230;5.702;2024-02-15T08:43:38;12.00;99.90
23719;DHT22;43322;52.230;5.702;2024-02-15T08:46:06;12.00;99.90
23719;DHT22;43322;52.230;5.702;2024-02-15T08:48:34;12.00;99.90
23719;DHT22;43322;52.230;5.702;2024-02-15T08:51:01;12.00;99.90
23719;DHT22;43322;52.230;5.702;2024-02-15T08:53:28;12.00;99.90
23719;DHT22;43322;52.230;5.702;2024-02-15T08:55:54;12.00;99.90
23719;DHT22;43322;52.230;5.702;2024-02-15T08:58:21;12.00;99.90
23719;DHT22;43322;52.230;5.702;2024-02-15T09:00:49;12.10;99.90
23719;DHT22;43322;52.230;5.702;2024-02-15T09:03:16;12.10;99.90
23719;DHT22;43322;52.230;5.702;2024-02-15T09:05:44;12.10;99.90
23719;DHT22;43322;52.230;5.702;2024-02-15T09:08:11;12.10;99.90
23719;DHT22;43322;52.230;5.702;2024-02-15T09:10:37;12.10;99.90
23719;DHT22;43322;52.230;5.702;2024-02-15T09:13:04;12.10;99.90
23719;DHT22;43322;52.230;5.702;2024-02-15T09:15:32;12.10;99.90
23719;DHT22;43322;52.230;5.702;2024-02-15T09:18:00;12.10;99.90
23719;DHT22;43322;52.230;5.702;2024-02-15T09:20:27;12.20;99.90
23719;DHT22;43322;52.230;5.702;2024-02-15T09:22:56;12.20;99.90
23719;DHT22;43322;52.230;5.702;2024-02-15T09:25:23;12.30;99.90
23719;DHT22;43322;52.230;5.702;2024-02-15T09:27:51;12.30;99.90
23719;DHT22;43322;52.230;5.702;2024-02-15T09:30:19;12.20;99.90
23719;DHT22;43322;52.230;5.702;2024-02-15T09:32:46;12.20;99.90
23719;DHT22;43322;52.230;5.702;2024-02-15T09:35:14;12.30;99.90
23719;DHT22;43322;52.230;5.702;2024-02-15T09:37:44;12.30;99.90
23719;DHT22;43322;52.230;5.702;2024-02-15T09:40:12;12.30;99.90
23719;DHT22;43322;52.230;5.702;2024-02-15T09:42:42;12.30;99.90
23719;DHT22;43322;52.230;5.702;2024-02-15T09:45:11;12.20;99.90
23719;DHT22;43322;52.230;5.702;2024-02-15T09:47:40;12.30;99.90
23719;DHT22;43322;52.230;5.702;2024-02-15T09:50:08;12.30;99.90
23719;DHT22;43322;52.230;5.702;2024-02-15T09:52:38;12.30;99.90
23719;DHT22;43322;52.230;5.702;2024-02-15T09:55:07;12.30;99.90
23719;DHT22;43322;52.230;5.702;2024-02-15T09:57:36;12.30;99.90
23719;DHT22;43322;52.230;5.702;2024-02-15T10:00:04;12.30;99.90
23719;DHT22;43322;52.230;5.702;2024-02-15T10:02:33;12.30;99.90
23719;DHT22;43322;52.230;5.702;2024-02-15T10:05:01;12.20;99.90
23719;DHT22;43322;52.230;5.702;2024-02-15T10:07:28;12.20;99.90
23719;DHT22;43322;52.230;5.702;2024-02-15T10:09:56;12.30;99.90
23719;DHT22;43322;52.230;5.702;2024-02-15T10:12:37;12.30;99.90
23719;DHT22;43322;52.230;5.702;2024-02-15T10:15:05;12.30;99.90
23719;DHT22;43322;52.230;5.702;2024-02-15T10:17:33;12.30;99.90
23719;DHT22;43322;52.230;5.702;2024-02-15T10:20:04;12.30;99.90
23719;DHT22;43322;52.230;5.702;2024-02-15T10:22:32;12.40;99.90
23719;DHT22;43322;52.230;5.702;2024-02-15T10:25:21;12.50;99.90
23719;DHT22;43322;52.230;5.702;2024-02-15T10:27:49;12.40;99.90
23719;DHT22;43322;52.230;5.702;2024-02-15T10:30:17;12.50;99.90
23719;DHT22;43322;52.230;5.702;2024-02-15T10:32:45;12.40;99.90
23719;DHT22;43322;52.230;5.702;2024-02-15T10:35:19;12.40;99.90
23719;DHT22;43322;52.230;5.702;2024-02-15T10:37:47;12.40;99.90
23719;DHT22;43322;52.230;5.702;2024-02-15T10:40:17;12.40;99.90
23719;DHT22;43322;52.230;5.702;2024-02-15T10:42:47;12.40;99.90
23719;DHT22;43322;52.230;5.702;2024-02-15T10:45:15;12.50;99.90
23719;DHT22;43322;52.230;5.702;2024-02-15T10:47:44;12.50;99.90
23719;DHT22;43322;52.230;5.702;2024-02-15T10:50:13;12.50;99.90
23719;DHT22;43322;52.230;5.702;2024-02-15T10:52:47;12.50;99.90
23719;DHT22;43322;52.230;5.702;2024-02-15T10:55:19;12.50;99.90
23719;DHT22;43322;52.230;5.702;2024-02-15T10:57:51;12.60;99.90
23719;DHT22;43322;52.230;5.702;2024-02-15T11:00:21;12.60;99.90
23719;DHT22;43322;52.230;5.702;2024-02-15T11:03:00;12.70;99.90
23719;DHT22;43322;52.230;5.702;2024-02-15T11:05:29;12.70;99.90
23719;DHT22;43322;52.230;5.702;2024-02-15T11:07:58;12.70;99.90
23719;DHT22;43322;52.230;5.702;2024-02-15T11:10:25;12.80;99.90
23719;DHT22;43322;52.230;5.702;2024-02-15T11:12:54;12.80;99.90
23719;DHT22;43322;52.230;5.702;2024-02-15T11:15:43;12.80;99.90
23719;DHT22;43322;52.230;5.702;2024-02-15T11:18:45;12.80;99.90
23719;DHT22;43322;52.230;5.702;2024-02-15T11:21:15;12.70;99.90
23719;DHT22;43322;52.230;5.702;2024-02-15T11:23:42;12.70;99.90
23719;DHT22;43322;52.230;5.702;2024-02-15T11:28:53;12.70;99.90
23719;DHT22;43322;52.230;5.702;2024-02-15T11:31:54;12.80;99.90
23719;DHT22;43322;52.230;5.702;2024-02-15T11:34:46;12.90;99.90
23719;DHT22;43322;52.230;5.702;2024-02-15T11:40:13;12.90;99.90
23719;DHT22;43322;52.230;5.702;2024-02-15T11:42:40;12.90;99.90
23719;DHT22;43322;52.230;5.702;2024-02-15T11:45:08;12.90;99.90
23719;DHT22;43322;52.230;5.702;2024-02-15T11:47:37;12.90;99.90
23719;DHT22;43322;52.230;5.702;2024-02-15T11:50:07;12.90;99.90
23719;DHT22;43322;52.230;5.702;2024-02-15T11:52:34;12.90;99.90
23719;DHT22;43322;52.230;5.702;2024-02-15T11:55:05;12.90;99.90
23719;DHT22;43322;52.230;5.702;2024-02-15T11:57:36;13.00;99.90
23719;DHT22;43322;52.230;5.702;2024-02-15T12:00:21;13.00;99.90
23719;DHT22;43322;52.230;5.702;2024-02-15T12:03:05;13.00;99.90
23719;DHT22;43322;52.230;5.702;2024-02-15T12:05:52;13.00;99.90
23719;DHT22;43322;52.230;5.702;2024-02-15T12:08:37;12.90;99.90
23719;DHT22;43322;52.230;5.702;2024-02-15T12:11:21;12.90;99.90
23719;DHT22;43322;52.230;5.702;2024-02-15T12:14:05;12.90;99.90
23719;DHT22;43322;52.230;5.702;2024-02-15T12:17:00;13.00;99.90
23719;DHT22;43322;52.230;5.702;2024-02-15T12:19:46;13.00;99.90
23719;DHT22;43322;52.230;5.702;2024-02-15T12:22:14;13.00;99.90
23719;DHT22;43322;52.230;5.702;2024-02-15T12:24:41;13.00;99.90
23719;DHT22;43322;52.230;5.702;2024-02-15T12:27:08;13.00;99.90
23719;DHT22;43322;52.230;5.702;2024-02-15T12:29:36;13.00;99.90
23719;DHT22;43322;52.230;5.702;2024-02-15T12:32:04;13.10;99.90
23719;DHT22;43322;52.230;5.702;2024-02-15T12:34:31;13.10;99.90
23719;DHT22;43322;52.230;5.702;2024-02-15T12:37:07;13.10;99.90
23719;DHT22;43322;52.230;5.702;2024-02-15T12:39:35;13.10;99.90
23719;DHT22;43322;52.230;5.702;2024-02-15T12:42:02;13.10;99.90
23719;DHT22;43322;52.230;5.702;2024-02-15T12:44:30;13.20;99.90
23719;DHT22;43322;52.230;5.702;2024-02-15T12:46:59;12.80;99.90
23719;DHT22;43322;52.230;5.702;2024-02-15T12:49:30;13.20;99.90
23719;DHT22;43322;52.230;5.702;2024-02-15T12:52:32;13.30;99.90
23719;DHT22;43322;52.230;5.702;2024-02-15T12:55:11;13.40;99.90
23719;DHT22;43322;52.230;5.702;2024-02-15T12:57:39;13.50;99.90
23719;DHT22;43322;52.230;5.702;2024-02-15T13:00:11;13.60;99.90
23719;DHT22;43322;52.230;5.702;2024-02-15T13:02:43;13.60;99.90
23719;DHT22;43322;52.230;5.702;2024-02-15T13:05:12;13.70;99.90
23719;DHT22;43322;52.230;5.702;2024-02-15T13:07:39;13.70;99.90
23719;DHT22;43322;52.230;5.702;2024-02-15T13:10:07;13.80;99.90
23719;DHT22;43322;52.230;5.702;2024-02-15T13:12:35;13.90;99.90
23719;DHT22;43322;52.230;5.702;2024-02-15T13:15:04;14.10;99.90
23719;DHT22;43322;52.230;5.702;2024-02-15T13:17:32;14.30;99.90
23719;DHT22;43322;52.230;5.702;2024-02-15T13:20:00;14.50;99.90
23719;DHT22;43322;52.230;5.702;2024-02-15T13:22:32;14.80;99.90
23719;DHT22;43322;52.230;5.702;2024-02-15T13:25:00;14.80;99.90
23719;DHT22;43322;52.230;5.702;2024-02-15T13:27:28;14.70;99.90
23719;DHT22;43322;52.230;5.702;2024-02-15T13:29:55;14.70;99.90
23719;DHT22;43322;52.230;5.702;2024-02-15T13:32:22;14.60;99.90
23719;DHT22;43322;52.230;5.702;2024-02-15T13:34:49;14.50;99.90
23719;DHT22;43322;52.230;5.702;2024-02-15T13:37:21;14.50;99.90
23719;DHT22;43322;52.230;5.702;2024-02-15T13:39:50;14.50;99.90
23719;DHT22;43322;52.230;5.702;2024-02-15T13:42:17;14.70;99.90
23719;DHT22;43322;52.230;5.702;2024-02-15T13:44:44;14.80;99.90
23719;DHT22;43322;52.230;5.702;2024-02-15T13:47:14;15.00;99.90
23719;DHT22;43322;52.230;5.702;2024-02-15T13:49:41;15.00;99.90
23719;DHT22;43322;52.230;5.702;2024-02-15T13:52:08;15.10;99.90
23719;DHT22;43322;52.230;5.702;2024-02-15T13:54:36;15.30;99.90
23719;DHT22;43322;52.230;5.702;2024-02-15T13:57:05;15.50;99.90
23719;DHT22;43322;52.230;5.702;2024-02-15T13:59:33;15.70;99.90
23719;DHT22;43322;52.230;5.702;2024-02-15T14:02:00;16.00;99.90
23719;DHT22;43322;52.230;5.702;2024-02-15T14:04:29;16.30;99.90
23719;DHT22;43322;52.230;5.702;2024-02-15T14:06:57;16.50;99.90
23719;DHT22;43322;52.230;5.702;2024-02-15T14:09:25;16.50;99.90
23719;DHT22;43322;52.230;5.702;2024-02-15T14:11:53;16.30;99.90
23719;DHT22;43322;52.230;5.702;2024-02-15T14:14:21;16.10;99.90
23719;DHT22;43322;52.230;5.702;2024-02-15T14:16:48;16.00;99.90
23719;DHT22;43322;52.230;5.702;2024-02-15T14:19:15;15.90;99.90
23719;DHT22;43322;52.230;5.702;2024-02-15T14:21:43;15.80;99.90
23719;DHT22;43322;52.230;5.702;2024-02-15T14:24:10;15.70;99.90
23719;DHT22;43322;52.230;5.702;2024-02-15T14:26:37;15.60;99.90
23719;DHT22;43322;52.230;5.702;2024-02-15T14:29:04;15.60;99.90
23719;DHT22;43322;52.230;5.702;2024-02-15T14:31:32;15.60;99.90
23719;DHT22;43322;52.230;5.702;2024-02-15T14:34:16;15.60;99.90
23719;DHT22;43322;52.230;5.702;2024-02-15T14:36:46;15.60;99.90
23719;DHT22;43322;52.230;5.702;2024-02-15T14:39:13;15.60;99.90
23719;DHT22;43322;52.230;5.702;2024-02-15T14:41:40;15.60;99.90
23719;DHT22;43322;52.230;5.702;2024-02-15T14:44:09;15.50;99.90
23719;DHT22;43322;52.230;5.702;2024-02-15T14:46:38;15.40;99.90
23719;DHT22;43322;52.230;5.702;2024-02-15T14:49:06;15.20;99.90
23719;DHT22;43322;52.230;5.702;2024-02-15T14:51:34;15.10;99.90
23719;DHT22;43322;52.230;5.702;2024-02-15T14:54:02;15.00;99.90
23719;DHT22;43322;52.230;5.702;2024-02-15T14:56:30;14.90;99.90
23719;DHT22;43322;52.230;5.702;2024-02-15T14:58:58;14.90;99.90
23719;DHT22;43322;52.230;5.702;2024-02-15T15:01:26;14.90;99.90
23719;DHT22;43322;52.230;5.702;2024-02-15T15:03:56;14.80;99.90
23719;DHT22;43322;52.230;5.702;2024-02-15T15:06:24;14.80;99.90
23719;DHT22;43322;52.230;5.702;2024-02-15T15:09:09;14.70;99.90
23719;DHT22;43322;52.230;5.702;2024-02-15T15:11:54;14.60;99.90
23719;DHT22;43322;52.230;5.702;2024-02-15T15:14:38;14.60;99.90
23719;DHT22;43322;52.230;5.702;2024-02-15T15:17:07;14.60;99.90
23719;DHT22;43322;52.230;5.702;2024-02-15T15:19:36;14.40;99.90
23719;DHT22;43322;52.230;5.702;2024-02-15T15:22:04;14.30;99.90
23719;DHT22;43322;52.230;5.702;2024-02-15T15:24:32;14.30;99.90
23719;DHT22;43322;52.230;5.702;2024-02-15T15:26:59;14.40;99.90
23719;DHT22;43322;52.230;5.702;2024-02-15T15:29:27;14.30;99.90
23719;DHT22;43322;52.230;5.702;2024-02-15T15:31:53;14.30;99.90
23719;DHT22;43322;52.230;5.702;2024-02-15T15:34:21;14.20;99.90
23719;DHT22;43322;52.230;5.702;2024-02-15T15:36:49;14.20;99.90
23719;DHT22;43322;52.230;5.702;2024-02-15T15:39:20;14.10;99.90
23719;DHT22;43322;52.230;5.702;2024-02-15T15:41:50;14.10;99.90
23719;DHT22;43322;52.230;5.702;2024-02-15T15:44:19;14.10;99.90
23719;DHT22;43322;52.230;5.702;2024-02-15T15:46:48;14.10;99.90
23719;DHT22;43322;52.230;5.702;2024-02-15T15:49:15;14.10;99.90
23719;DHT22;43322;52.230;5.702;2024-02-15T15:51:42;14.10;99.90